This is the latest recevied weather packets stored in our database for station/object M0SDM-10. If no packets are shown the sender has not sent any weather packets the latest 10 day(s).
| Time | Temp. | Humidity | Pressure | Rain* | Wind** | Luminosity | Snow |
|---|---|---|---|---|---|---|---|
| 1777688862 | 15.56° C | 64% | 1006.6 hPa | - | - | - | - |
| 1777687062 | 15.56° C | 64% | 1007 hPa | - | - | - | - |
| 1777685262 | 15.56° C | 64% | 1007.1 hPa | - | - | - | - |
| 1777683462 | 15.56° C | 63% | 1007.2 hPa | - | - | - | - |
| 1777681661 | 15.56° C | 63% | 1007.5 hPa | - | - | - | - |
| 1777679861 | 16.11° C | 63% | 1007.5 hPa | - | - | - | - |
| 1777678061 | 16.11° C | 62% | 1007.6 hPa | - | - | - | - |
| 1777676261 | 16.11° C | 62% | 1007.7 hPa | - | - | - | - |
| 1777674462 | 16.67° C | 61% | 1007.6 hPa | - | - | - | - |
| 1777672660 | 16.67° C | 61% | 1007.6 hPa | - | - | - | - |
| 1777670860 | 16.67° C | 61% | 1007.6 hPa | - | - | - | - |
| 1777669060 | 16.67° C | 60% | 1007.6 hPa | - | - | - | - |
| 1777667260 | 16.11° C | 63% | 1007.4 hPa | - | - | - | - |
| 1777665460 | 16.11° C | 61% | 1007.4 hPa | - | - | - | - |
| 1777663691 | 16.67° C | 59% | 1007.2 hPa | - | - | - | - |
| 1777663660 | 16.67° C | 59% | 1007.2 hPa | - | - | - | - |
| 1777661860 | 17.22° C | 59% | 1007 hPa | - | - | - | - |
| 1777660059 | 18.89° C | 53% | 1006.1 hPa | - | - | - | - |
| 1777658259 | 18.89° C | 53% | 1006.1 hPa | - | - | - | - |
| 1777656459 | 18.89° C | 52% | 1006.2 hPa | - | - | - | - |
| 1777654659 | 19.44° C | 51% | 1006.3 hPa | - | - | - | - |
| 1777652859 | 19.44° C | 49% | 1006.4 hPa | - | - | - | - |
| 1777651059 | 19.44° C | 50% | 1006.6 hPa | - | - | - | - |
| 1777649259 | 20° C | 45% | 1007 hPa | - | - | - | - |
| 1777647459 | 18.33° C | 52% | 1007.3 hPa | - | - | - | - |
* Rain since midnight (hover to see other rain measurements)
** Current wind speed in m/s (hover to see current wind gust speed)